White Mills, Pennsylvania
Current Conditions -  °F | °C
As of 3:19 PM on Wednesday 26 Nov 2014 (Local Time) from KMPO Reporting Station
Light Snow Light Snow  
Wind Chill: 23°   Ceiling: 2600
Heat Index: 31°   Visibility: 1mi
Dew Point: 27°   Wind: 9mph
Humidity: 85%   Direction: 10°N
Pressure: 29.84"   Gusts: NA
Location:  41.53°N, 75.2°W
Report Text: KMPO 262019Z AUTO 01008KT 1SM -SN BR OVC026 M01/M03 A2984 RMK AO2 P0000 T10061028
Loading
Personal Weather Stations






























Interactive Weather Map New forecast layout! Learn more

10-Day Weather Forecast

Advertisements
Track Severe Weather on mobile